createdAt,value
2018-05-15T00:01:11.803Z,82.80
2018-05-15T00:03:38.752Z,83.20
2018-05-15T00:06:05.599Z,82.80
2018-05-15T00:08:32.536Z,83.10
2018-05-15T00:10:59.381Z,83.20
2018-05-15T00:13:26.222Z,83.40
2018-05-15T00:15:53.076Z,83.20
2018-05-15T00:18:19.916Z,82.40
2018-05-15T00:20:46.847Z,83.50
2018-05-15T00:23:13.895Z,82.60
2018-05-15T00:25:40.740Z,82.90
2018-05-15T00:28:07.680Z,82.40
2018-05-15T00:30:34.600Z,82.40
2018-05-15T00:33:01.469Z,82.40
2018-05-15T00:35:28.240Z,82.90
2018-05-15T00:37:55.879Z,82.30
2018-05-15T00:40:22.715Z,82.20
2018-05-15T00:42:49.561Z,81.80
2018-05-15T00:45:16.394Z,81.80
2018-05-15T00:47:43.340Z,82.60
2018-05-15T00:50:10.287Z,82.10
2018-05-15T00:52:37.002Z,82.30
2018-05-15T00:55:27.007Z,82.60
2018-05-15T00:57:53.950Z,81.50
2018-05-15T01:00:20.794Z,81.70
2018-05-15T01:02:47.742Z,81.80
2018-05-15T01:05:14.691Z,81.70
2018-05-15T01:07:41.526Z,82.50
2018-05-15T01:10:08.406Z,82.00
2018-05-15T01:12:36.048Z,82.10
2018-05-15T01:15:02.982Z,82.10
2018-05-15T01:17:29.823Z,82.60
2018-05-15T01:19:56.659Z,83.30
2018-05-15T01:22:23.499Z,82.90
2018-05-15T01:24:50.547Z,83.30
2018-05-15T01:27:17.399Z,83.80
2018-05-15T01:29:45.051Z,84.50
2018-05-15T01:32:11.892Z,84.60
2018-05-15T01:34:38.736Z,83.90
2018-05-15T01:37:05.579Z,83.00
2018-05-15T01:39:32.458Z,83.60
2018-05-15T01:42:00.081Z,82.90
2018-05-15T01:44:26.837Z,83.10
2018-05-15T01:46:53.679Z,82.80
2018-05-15T01:49:20.608Z,82.70
2018-05-15T01:51:47.449Z,82.00
2018-05-15T01:54:14.289Z,82.40
2018-05-15T01:56:41.135Z,81.90
2018-05-15T01:59:07.975Z,81.80
2018-05-15T02:01:34.892Z,81.40
2018-05-15T02:04:01.761Z,81.90
2018-05-15T02:06:28.709Z,81.40
2018-05-15T02:08:55.753Z,81.20
2018-05-15T02:11:22.697Z,81.60
2018-05-15T02:13:49.648Z,82.50
2018-05-15T02:16:16.483Z,82.50
2018-05-15T02:18:43.433Z,82.30
2018-05-15T02:21:10.270Z,83.10
2018-05-15T02:23:36.934Z,83.40
2018-05-15T02:26:03.852Z,83.70
2018-05-15T02:28:30.751Z,83.80
2018-05-15T02:30:58.160Z,84.00
2018-05-15T02:33:24.892Z,84.00
2018-05-15T02:35:51.507Z,84.50
2018-05-15T02:38:18.242Z,84.90
2018-05-15T02:40:44.860Z,85.50
2018-05-15T02:43:12.364Z,86.10
2018-05-15T02:45:38.999Z,86.10
2018-05-15T02:48:05.842Z,85.70
2018-05-15T02:50:32.582Z,86.20
2018-05-15T02:52:59.426Z,86.20
2018-05-15T02:55:26.147Z,86.50
2018-05-15T02:57:52.890Z,87.00
2018-05-15T03:00:19.644Z,87.10
2018-05-15T03:02:46.380Z,87.40
2018-05-15T03:05:13.001Z,87.70
2018-05-15T03:07:39.646Z,87.60
2018-05-15T03:10:06.394Z,87.80
2018-05-15T03:12:33.231Z,88.20
2018-05-15T03:15:00.099Z,88.40
2018-05-15T03:17:26.924Z,89.40
2018-05-15T03:19:53.631Z,89.50
2018-05-15T03:22:20.400Z,89.90
2018-05-15T03:24:47.147Z,89.50
2018-05-15T03:27:14.190Z,89.20
2018-05-15T03:29:40.916Z,88.80
2018-05-15T03:32:07.643Z,88.40
2018-05-15T03:34:34.347Z,87.90
2018-05-15T03:37:01.967Z,87.40
2018-05-15T03:39:28.708Z,87.40
2018-05-15T03:41:55.321Z,87.60
2018-05-15T03:44:22.095Z,87.70
2018-05-15T03:46:48.822Z,88.00
2018-05-15T03:49:15.561Z,88.20
2018-05-15T03:51:42.298Z,88.90
2018-05-15T03:54:09.023Z,89.20
2018-05-15T03:56:35.778Z,89.80
2018-05-15T03:59:02.622Z,90.30
2018-05-15T04:01:41.750Z,90.30
2018-05-15T04:04:20.885Z,90.50
2018-05-15T04:06:59.881Z,90.80
2018-05-15T04:09:26.750Z,91.00
2018-05-15T04:11:53.382Z,91.00
2018-05-15T04:14:20.138Z,91.10
2018-05-15T04:16:46.829Z,91.20
2018-05-15T04:19:13.468Z,91.10
2018-05-15T04:21:40.146Z,91.40
2018-05-15T04:24:06.787Z,91.00
2018-05-15T04:26:33.411Z,91.00
2018-05-15T04:29:00.359Z,90.90
2018-05-15T04:31:26.971Z,91.10
2018-05-15T04:33:53.619Z,91.00
2018-05-15T04:36:20.377Z,91.20
2018-05-15T04:38:47.115Z,91.00
2018-05-15T04:41:14.779Z,90.50
2018-05-15T04:43:41.704Z,90.70
2018-05-15T04:46:08.154Z,90.90
2018-05-15T04:48:34.870Z,90.90
2018-05-15T04:51:01.456Z,90.80
2018-05-15T04:53:28.142Z,90.70
2018-05-15T04:55:54.807Z,90.70
2018-05-15T04:58:21.551Z,90.50
2018-05-15T05:00:48.258Z,90.60
2018-05-15T05:03:14.931Z,90.70
2018-05-15T05:05:41.673Z,90.10
2018-05-15T05:08:08.379Z,90.50
2018-05-15T05:10:35.050Z,91.60
2018-05-15T05:13:01.783Z,91.40
2018-05-15T05:15:28.519Z,91.10
2018-05-15T05:17:55.129Z,91.60
2018-05-15T05:20:21.879Z,90.80
2018-05-15T05:22:48.514Z,90.30
2018-05-15T05:25:15.158Z,89.60
2018-05-15T05:27:41.899Z,89.60
2018-05-15T05:30:08.472Z,90.60
2018-05-15T05:32:35.245Z,90.60
2018-05-15T05:35:01.922Z,90.40
2018-05-15T05:37:28.768Z,90.30
2018-05-15T05:39:55.504Z,90.50
2018-05-15T05:42:22.116Z,91.20
2018-05-15T05:44:48.784Z,88.50
2018-05-15T05:47:15.496Z,89.40
2018-05-15T05:49:42.157Z,88.50
2018-05-15T05:52:08.938Z,87.90
2018-05-15T05:54:36.304Z,87.80
2018-05-15T05:57:03.682Z,86.80
2018-05-15T05:59:30.293Z,86.80
2018-05-15T06:02:26.143Z,87.00
2018-05-15T06:05:13.944Z,86.90
2018-05-15T06:07:41.425Z,86.60
2018-05-15T06:10:08.826Z,85.10
2018-05-15T06:12:35.550Z,85.00
2018-05-15T06:15:02.286Z,83.70
2018-05-15T06:17:29.028Z,84.20
2018-05-15T06:19:55.670Z,83.10
2018-05-15T06:22:22.372Z,83.00
2018-05-15T06:24:49.040Z,84.00
2018-05-15T06:27:15.768Z,83.40
2018-05-15T06:29:42.628Z,83.10
2018-05-15T06:32:09.350Z,82.20
2018-05-15T06:34:35.980Z,82.80
2018-05-15T06:37:02.875Z,83.30
2018-05-15T06:39:29.586Z,82.30
2018-05-15T06:41:56.220Z,84.20
2018-05-15T06:44:22.963Z,84.40
2018-05-15T06:46:49.579Z,83.00
2018-05-15T06:49:16.304Z,80.70
2018-05-15T06:51:42.974Z,80.80
2018-05-15T06:54:09.818Z,81.10
2018-05-15T06:56:36.633Z,82.10
2018-05-15T06:59:03.298Z,79.20
2018-05-15T07:01:30.037Z,81.50
2018-05-15T07:03:56.777Z,79.10
2018-05-15T07:06:23.516Z,78.10
2018-05-15T07:08:50.233Z,80.00
2018-05-15T07:11:16.996Z,78.60
2018-05-15T07:13:43.837Z,78.40
2018-05-15T07:16:10.549Z,77.50
2018-05-15T07:18:37.189Z,78.60
2018-05-15T07:21:03.955Z,77.70
2018-05-15T07:23:30.694Z,79.50
2018-05-15T07:25:57.380Z,76.10
2018-05-15T07:28:24.996Z,76.40
2018-05-15T07:30:51.729Z,76.40
2018-05-15T07:33:18.348Z,77.10
2018-05-15T07:35:45.313Z,75.90
2018-05-15T07:38:12.054Z,78.30
2018-05-15T07:40:38.770Z,78.90
2018-05-15T07:43:05.736Z,78.60
2018-05-15T07:45:32.332Z,78.20
2018-05-15T07:47:58.922Z,78.00
2018-05-15T07:50:25.618Z,77.90
2018-05-15T07:52:52.340Z,78.60
2018-05-15T07:55:19.744Z,80.10
2018-05-15T07:57:46.361Z,79.90
2018-05-15T08:00:13.201Z,77.70
2018-05-15T08:02:39.793Z,76.80
2018-05-15T08:05:07.289Z,77.60
2018-05-15T08:07:34.158Z,77.60
2018-05-15T08:10:00.899Z,77.10
2018-05-15T08:12:27.636Z,77.50
2018-05-15T08:14:54.635Z,77.00
2018-05-15T08:17:22.346Z,77.70
2018-05-15T08:19:49.394Z,77.80
2018-05-15T08:22:16.153Z,78.00
2018-05-15T08:24:43.913Z,75.70
2018-05-15T08:27:10.532Z,75.90
2018-05-15T08:29:37.168Z,75.80
2018-05-15T08:32:03.881Z,74.10
2018-05-15T08:34:30.545Z,72.90
2018-05-15T08:36:57.390Z,71.80
2018-05-15T08:39:24.130Z,72.60
2018-05-15T08:41:50.850Z,74.80
2018-05-15T08:44:17.811Z,73.00
2018-05-15T08:46:44.424Z,70.50
2018-05-15T08:49:11.085Z,72.20
2018-05-15T08:51:37.814Z,74.80
2018-05-15T08:54:04.395Z,75.00
2018-05-15T08:56:31.100Z,73.80
2018-05-15T08:58:57.821Z,74.50
2018-05-15T09:01:24.476Z,73.30
2018-05-15T09:03:51.196Z,71.50
2018-05-15T09:06:17.854Z,71.20
2018-05-15T09:08:45.104Z,72.70
2018-05-15T09:11:12.151Z,71.10
2018-05-15T09:13:39.407Z,73.20
2018-05-15T09:16:06.061Z,73.20
2018-05-15T09:18:32.768Z,72.10
2018-05-15T09:20:59.401Z,74.00
2018-05-15T09:23:26.037Z,74.70
2018-05-15T09:25:52.669Z,72.10
2018-05-15T09:28:19.329Z,71.60
2018-05-15T09:30:46.054Z,73.90
2018-05-15T09:33:12.813Z,73.80
2018-05-15T09:35:39.526Z,75.30
2018-05-15T09:38:06.169Z,74.60
2018-05-15T09:40:32.822Z,73.80
2018-05-15T09:42:59.423Z,73.90
2018-05-15T09:45:26.205Z,74.10
2018-05-15T09:47:52.939Z,75.70
2018-05-15T09:50:19.682Z,76.40
2018-05-15T09:52:46.627Z,76.20
2018-05-15T09:55:13.774Z,77.40
2018-05-15T09:57:40.462Z,74.70
2018-05-15T10:00:08.173Z,74.60
2018-05-15T10:02:34.914Z,74.50
2018-05-15T10:05:01.860Z,74.00
2018-05-15T10:07:28.706Z,75.20
2018-05-15T10:09:55.443Z,74.50
2018-05-15T10:12:22.026Z,74.30
2018-05-15T10:14:49.352Z,75.30
2018-05-15T10:17:16.145Z,75.20
2018-05-15T10:19:42.724Z,74.00
2018-05-15T10:22:09.445Z,75.30
2018-05-15T10:24:36.499Z,72.50
2018-05-15T10:27:03.539Z,74.40
2018-05-15T10:29:30.179Z,74.20
2018-05-15T10:31:56.888Z,74.00
2018-05-15T10:34:23.654Z,73.40
2018-05-15T10:36:50.465Z,74.10
2018-05-15T10:39:17.073Z,77.20
2018-05-15T10:41:44.388Z,78.40
2018-05-15T10:44:11.101Z,78.30
2018-05-15T10:46:37.765Z,77.40
2018-05-15T10:49:04.481Z,76.40
2018-05-15T10:51:31.246Z,74.90
2018-05-15T10:53:57.857Z,75.80
2018-05-15T10:56:24.520Z,75.70
2018-05-15T10:58:51.250Z,76.30
2018-05-15T11:01:17.894Z,75.70
2018-05-15T11:03:44.635Z,74.30
2018-05-15T11:06:11.279Z,73.70
2018-05-15T11:08:37.932Z,73.20
2018-05-15T11:11:04.650Z,71.70
2018-05-15T11:13:31.393Z,71.20
2018-05-15T11:15:58.126Z,71.20
2018-05-15T11:18:47.808Z,70.90
2018-05-15T11:21:26.629Z,69.80
2018-05-15T11:24:17.997Z,71.60
2018-05-15T11:26:45.331Z,71.80
2018-05-15T11:29:12.020Z,71.80
2018-05-15T11:31:38.780Z,73.50
2018-05-15T11:34:06.630Z,73.00
2018-05-15T11:36:33.358Z,72.10
2018-05-15T11:38:59.996Z,71.50
2018-05-15T11:41:26.758Z,71.80
2018-05-15T11:43:53.399Z,72.30
2018-05-15T11:46:20.243Z,72.40
2018-05-15T11:48:47.916Z,72.50
2018-05-15T11:51:15.487Z,74.20
2018-05-15T11:53:42.207Z,73.80
2018-05-15T11:56:09.151Z,73.80
2018-05-15T11:58:35.795Z,75.30
2018-05-15T12:01:03.151Z,75.80
2018-05-15T12:03:29.990Z,76.70
2018-05-15T12:05:56.828Z,78.20
2018-05-15T12:08:23.691Z,79.10
2018-05-15T12:10:51.073Z,80.00
2018-05-15T12:13:18.580Z,80.10
2018-05-15T12:15:45.298Z,80.00
2018-05-15T12:18:12.161Z,79.70
2018-05-15T12:20:39.004Z,79.00
2018-05-15T12:23:05.639Z,80.20
2018-05-15T12:25:32.305Z,83.00
2018-05-15T12:27:58.948Z,84.50
2018-05-15T12:30:26.349Z,88.50
2018-05-15T12:32:53.082Z,88.40
2018-05-15T12:35:19.747Z,88.20
2018-05-15T12:37:46.474Z,86.60
2018-05-15T12:40:13.324Z,88.20
2018-05-15T12:42:40.176Z,89.20
2018-05-15T12:45:06.910Z,87.90
2018-05-15T12:47:33.649Z,89.70
2018-05-15T12:50:00.290Z,90.40
2018-05-15T12:52:27.131Z,90.00
2018-05-15T12:54:53.868Z,90.70
2018-05-15T12:57:20.485Z,90.70
2018-05-15T12:59:47.449Z,91.40
2018-05-15T13:02:14.093Z,92.00
2018-05-15T13:04:40.829Z,92.60
2018-05-15T13:07:07.674Z,93.60
2018-05-15T13:09:34.412Z,94.10
2018-05-15T13:12:01.022Z,94.90
2018-05-15T13:14:27.662Z,95.50
2018-05-15T13:16:54.419Z,96.20
2018-05-15T13:19:21.170Z,97.20
2018-05-15T13:21:48.012Z,97.60
2018-05-15T13:24:14.743Z,98.20
2018-05-15T13:26:41.460Z,97.70
2018-05-15T13:29:08.122Z,97.50
2018-05-15T13:31:34.832Z,98.50
2018-05-15T13:34:01.470Z,98.70
2018-05-15T13:36:28.132Z,98.90
2018-05-15T13:38:54.726Z,99.40
2018-05-15T13:41:22.097Z,99.30
2018-05-15T13:43:48.760Z,99.30
2018-05-15T13:46:15.500Z,99.20
2018-05-15T13:48:42.344Z,99.50
2018-05-15T13:51:09.056Z,99.90
2018-05-15T13:53:35.821Z,99.90
2018-05-15T13:56:03.482Z,99.90
2018-05-15T13:58:30.119Z,99.90
2018-05-15T14:00:57.043Z,99.90
2018-05-15T14:03:23.704Z,99.90
2018-05-15T14:05:50.414Z,99.90
2018-05-15T14:08:17.165Z,99.90
2018-05-15T14:10:44.026Z,99.90
2018-05-15T14:13:10.743Z,99.90
2018-05-15T14:15:37.365Z,99.90
2018-05-15T14:18:04.038Z,99.90
2018-05-15T14:20:30.784Z,99.90
2018-05-15T14:22:57.524Z,99.70
2018-05-15T14:25:24.246Z,99.90
2018-05-15T14:27:50.900Z,99.80
2018-05-15T14:30:17.620Z,99.40
2018-05-15T14:32:44.358Z,99.00
2018-05-15T14:35:11.112Z,98.60
2018-05-15T14:37:37.956Z,98.60
2018-05-15T14:40:04.694Z,98.50
2018-05-15T14:42:43.641Z,98.00
2018-05-15T14:45:15.265Z,97.70
2018-05-15T14:47:42.818Z,97.90
2018-05-15T14:50:09.464Z,97.90
2018-05-15T14:52:36.050Z,97.60
2018-05-15T14:55:03.392Z,96.80
2018-05-15T14:57:30.076Z,96.80
2018-05-15T14:59:56.737Z,96.90
2018-05-15T15:02:23.682Z,97.20
2018-05-15T15:04:50.293Z,97.20
2018-05-15T15:07:16.955Z,97.20
2018-05-15T15:09:43.593Z,96.80
2018-05-15T15:12:10.639Z,97.10
2018-05-15T15:14:37.254Z,97.10
2018-05-15T15:17:03.914Z,97.10
2018-05-15T15:19:30.590Z,97.30
2018-05-15T15:21:57.985Z,97.20
2018-05-15T15:24:24.643Z,97.30
2018-05-15T15:26:51.466Z,97.30
2018-05-15T15:29:18.310Z,97.30
2018-05-15T15:31:45.071Z,97.80
2018-05-15T15:34:11.785Z,97.50
2018-05-15T15:36:38.452Z,98.40
2018-05-15T15:39:05.289Z,98.80
2018-05-15T15:41:32.028Z,99.60
2018-05-15T15:43:58.672Z,99.70
2018-05-15T15:46:25.353Z,99.60
2018-05-15T15:48:52.732Z,99.90
2018-05-15T15:51:19.396Z,99.90
2018-05-15T15:53:46.238Z,99.90
2018-05-15T15:56:12.833Z,99.90
2018-05-15T15:58:40.204Z,99.90
2018-05-15T16:01:06.847Z,99.90
2018-05-15T16:03:33.625Z,99.90
2018-05-15T16:06:00.348Z,99.90
2018-05-15T16:08:27.090Z,99.90
2018-05-15T16:10:53.693Z,99.90
2018-05-15T16:13:21.053Z,99.90
2018-05-15T16:15:47.713Z,99.90
2018-05-15T16:18:14.319Z,99.90
2018-05-15T16:20:41.139Z,99.90
2018-05-15T16:23:08.650Z,99.90
2018-05-15T16:25:35.287Z,99.90
2018-05-15T16:28:01.924Z,99.90
2018-05-15T16:30:28.555Z,99.90
2018-05-15T16:32:55.212Z,99.90
2018-05-15T16:35:21.802Z,99.90
2018-05-15T16:37:48.542Z,99.90
2018-05-15T16:40:15.420Z,99.90
2018-05-15T16:42:42.055Z,99.90
2018-05-15T16:45:08.690Z,99.90
2018-05-15T16:47:35.433Z,99.90
2018-05-15T16:50:02.044Z,99.90
2018-05-15T16:52:28.709Z,99.90
2018-05-15T16:54:55.444Z,99.90
2018-05-15T16:57:22.083Z,99.90
2018-05-15T16:59:48.806Z,99.90
2018-05-15T17:02:15.442Z,99.90
2018-05-15T17:04:42.086Z,99.90
2018-05-15T17:07:08.681Z,99.90
2018-05-15T17:09:36.212Z,99.90
2018-05-15T17:12:03.009Z,99.90
2018-05-15T17:14:29.675Z,99.90
2018-05-15T17:16:56.310Z,99.90
2018-05-15T17:19:22.921Z,99.90
2018-05-15T17:21:49.587Z,99.90
2018-05-15T17:24:16.294Z,99.90
2018-05-15T17:26:42.933Z,99.90
2018-05-15T17:29:09.557Z,99.90
2018-05-15T17:31:36.232Z,99.90
2018-05-15T17:34:02.838Z,99.90
2018-05-15T17:36:29.611Z,99.90
2018-05-15T17:38:56.232Z,99.90
2018-05-15T17:41:22.840Z,99.90
2018-05-15T17:43:49.623Z,99.90
2018-05-15T17:46:16.363Z,99.90
2018-05-15T17:48:43.087Z,99.90
2018-05-15T17:51:09.945Z,99.90
2018-05-15T17:53:36.637Z,99.90
2018-05-15T17:56:03.984Z,99.90
2018-05-15T17:58:32.300Z,99.90
2018-05-15T18:00:58.951Z,99.90
2018-05-15T18:03:25.796Z,99.90
2018-05-15T18:05:52.535Z,99.90
2018-05-15T18:08:19.272Z,99.90
2018-05-15T18:10:45.984Z,99.90
2018-05-15T18:13:12.752Z,99.90
2018-05-15T18:15:39.603Z,99.90
2018-05-15T18:18:06.335Z,99.90
2018-05-15T18:20:32.905Z,99.90
2018-05-15T18:22:59.585Z,99.90
2018-05-15T18:25:26.326Z,99.90
2018-05-15T18:27:53.191Z,99.90
2018-05-15T18:30:19.829Z,99.90
2018-05-15T18:32:46.679Z,99.90
2018-05-15T18:35:13.381Z,99.90
2018-05-15T18:37:40.178Z,99.90
2018-05-15T18:40:08.632Z,99.90
2018-05-15T18:42:35.373Z,99.90
2018-05-15T18:45:02.234Z,99.90
2018-05-15T18:47:28.952Z,99.90
2018-05-15T18:49:58.909Z,99.90
2018-05-15T18:52:26.424Z,99.90
2018-05-15T18:54:53.140Z,99.90
2018-05-15T18:57:19.778Z,99.90
2018-05-15T18:59:46.541Z,99.90
2018-05-15T19:02:13.387Z,99.90
2018-05-15T19:04:40.235Z,99.90
2018-05-15T19:07:07.145Z,99.90
2018-05-15T19:09:33.827Z,99.90
2018-05-15T19:12:00.530Z,99.60
2018-05-15T19:14:27.195Z,99.90
2018-05-15T19:16:53.892Z,99.70
2018-05-15T19:19:20.676Z,99.60
2018-05-15T19:21:48.126Z,99.90
2018-05-15T19:24:14.834Z,99.90
2018-05-15T19:26:41.705Z,99.50
2018-05-15T19:29:08.856Z,98.70
2018-05-15T19:31:37.248Z,98.20
2018-05-15T19:34:12.163Z,99.30
2018-05-15T19:36:47.010Z,99.90
2018-05-15T19:39:16.083Z,99.80
2018-05-15T19:41:45.018Z,97.70
2018-05-15T19:44:13.766Z,97.40
2018-05-15T19:46:42.507Z,97.60
2018-05-15T19:49:11.969Z,97.90
2018-05-15T19:51:40.805Z,98.20
2018-05-15T19:54:09.636Z,97.60
2018-05-15T19:56:38.520Z,98.40
2018-05-15T19:59:07.386Z,97.90
2018-05-15T20:01:36.164Z,97.60
2018-05-15T20:04:05.081Z,98.20
2018-05-15T20:06:34.084Z,98.00
2018-05-15T20:09:03.007Z,98.00
2018-05-15T20:11:32.833Z,98.50
2018-05-15T20:14:02.402Z,98.40
2018-05-15T20:16:30.779Z,98.40
2018-05-15T20:18:59.354Z,98.70
2018-05-15T20:21:26.975Z,98.40
2018-05-15T20:23:54.103Z,98.70
2018-05-15T20:26:21.106Z,98.60
2018-05-15T20:28:47.822Z,98.70
2018-05-15T20:31:14.530Z,98.60
2018-05-15T20:33:41.942Z,98.60
2018-05-15T20:36:08.682Z,98.50
2018-05-15T20:38:35.417Z,98.60
2018-05-15T20:41:02.056Z,98.60
2018-05-15T20:43:28.794Z,98.80
2018-05-15T20:45:55.431Z,98.60
2018-05-15T20:48:22.481Z,98.60
2018-05-15T20:50:49.094Z,98.70
2018-05-15T20:53:15.720Z,98.80
2018-05-15T20:55:42.392Z,98.70
2018-05-15T20:58:08.983Z,99.00
2018-05-15T21:00:36.593Z,98.80
2018-05-15T21:03:04.045Z,98.70
2018-05-15T21:05:30.886Z,98.70
2018-05-15T21:07:57.626Z,99.00
2018-05-15T21:10:24.265Z,98.90
2018-05-15T21:12:51.003Z,99.10
2018-05-15T21:15:17.641Z,99.00
2018-05-15T21:17:44.557Z,99.00
2018-05-15T21:20:11.225Z,98.70
2018-05-15T21:22:38.066Z,98.70
2018-05-15T21:25:04.718Z,98.70
2018-05-15T21:27:31.448Z,99.10
2018-05-15T21:29:58.155Z,99.60
2018-05-15T21:32:24.792Z,99.60
2018-05-15T21:34:51.394Z,99.60
2018-05-15T21:37:18.811Z,99.10
2018-05-15T21:39:45.550Z,99.10
2018-05-15T21:42:12.289Z,99.10
2018-05-15T21:44:39.032Z,99.20
2018-05-15T21:47:05.745Z,99.10
2018-05-15T21:49:33.850Z,99.00
2018-05-15T21:52:00.557Z,99.10
2018-05-15T21:54:27.320Z,99.20
2018-05-15T21:56:54.058Z,99.10
2018-05-15T21:59:20.801Z,99.00
2018-05-15T22:01:47.514Z,99.10
2018-05-15T22:04:14.124Z,98.70
2018-05-15T22:06:41.456Z,98.70
2018-05-15T22:09:08.137Z,98.70
2018-05-15T22:11:47.197Z,98.60
2018-05-15T22:14:26.325Z,98.60
2018-05-15T22:17:05.158Z,98.60
2018-05-15T22:19:44.009Z,98.80
2018-05-15T22:22:14.094Z,98.80
2018-05-15T22:24:40.825Z,98.70
2018-05-15T22:27:07.774Z,98.90
2018-05-15T22:29:34.617Z,98.60
2018-05-15T22:32:01.357Z,98.70
2018-05-15T22:34:27.966Z,98.20
2018-05-15T22:36:54.631Z,98.00
2018-05-15T22:39:21.471Z,98.20
2018-05-15T22:41:48.113Z,98.10
2018-05-15T22:44:14.850Z,97.90
2018-05-15T22:46:42.304Z,97.50
2018-05-15T22:49:08.939Z,97.50
2018-05-15T22:51:35.681Z,97.60
2018-05-15T22:54:02.523Z,97.60
2018-05-15T22:56:29.231Z,97.10
2018-05-15T22:58:55.904Z,97.00
2018-05-15T23:01:22.618Z,96.90
2018-05-15T23:03:49.362Z,97.30
2018-05-15T23:06:16.805Z,97.00
2018-05-15T23:08:43.576Z,97.00
2018-05-15T23:11:10.317Z,97.30
2018-05-15T23:13:36.891Z,97.10
2018-05-15T23:16:04.220Z,97.40
2018-05-15T23:18:30.949Z,97.40
2018-05-15T23:20:57.890Z,97.40
2018-05-15T23:23:24.734Z,97.60
2018-05-15T23:25:51.444Z,97.60
2018-05-15T23:28:18.108Z,97.60
2018-05-15T23:30:44.857Z,97.20
2018-05-15T23:33:11.587Z,97.10
2018-05-15T23:35:38.330Z,97.30
2018-05-15T23:38:04.940Z,97.50
2018-05-15T23:40:31.599Z,97.80
2018-05-15T23:42:58.184Z,97.90
2018-05-15T23:45:25.799Z,97.80
2018-05-15T23:47:52.537Z,97.80
2018-05-15T23:50:19.381Z,97.70
2018-05-15T23:52:46.120Z,98.00
2018-05-15T23:55:13.037Z,97.80
2018-05-15T23:57:40.520Z,97.60
